createdAt,value
2018-11-27T00:00:27.996Z,6.90
2018-11-27T00:02:58.543Z,6.40
2018-11-27T00:05:27.492Z,8.88
2018-11-27T00:08:02.044Z,3.02
2018-11-27T00:10:32.579Z,10.70
2018-11-27T00:13:01.274Z,4.50
2018-11-27T00:15:29.978Z,4.40
2018-11-27T00:17:58.793Z,5.83
2018-11-27T00:20:27.425Z,3.58
2018-11-27T00:22:59.164Z,2.80
2018-11-27T00:25:27.948Z,4.50
2018-11-27T00:27:56.643Z,7.85
2018-11-27T00:30:25.352Z,6.12
2018-11-27T00:32:54.043Z,4.85
2018-11-27T00:35:22.845Z,4.15
2018-11-27T00:37:51.499Z,4.40
2018-11-27T00:40:21.266Z,6.55
2018-11-27T00:42:49.982Z,6.47
2018-11-27T00:45:19.779Z,4.08
2018-11-27T00:47:49.322Z,3.00
2018-11-27T00:50:20.147Z,4.42
2018-11-27T00:52:48.844Z,4.83
2018-11-27T00:55:18.375Z,7.05
2018-11-27T00:57:48.374Z,4.25
2018-11-27T01:00:20.200Z,3.80
2018-11-27T01:02:48.929Z,8.78
2018-11-27T01:05:19.101Z,3.20
2018-11-27T01:07:47.860Z,3.98
2018-11-27T01:10:20.520Z,5.55
2018-11-27T01:12:49.203Z,5.75
2018-11-27T01:15:17.917Z,4.20
2018-11-27T01:17:48.720Z,4.55
2018-11-27T01:20:18.328Z,3.02
2018-11-27T01:22:47.031Z,4.25
2018-11-27T01:25:15.736Z,5.17
2018-11-27T01:27:45.344Z,5.00
2018-11-27T01:30:16.842Z,5.95
2018-11-27T01:32:45.701Z,4.30
2018-11-27T01:35:19.808Z,3.65
2018-11-27T01:37:49.363Z,3.92
2018-11-27T01:40:19.275Z,7.47
2018-11-27T01:42:48.870Z,5.47
2018-11-27T01:45:18.549Z,4.33
2018-11-27T01:47:47.366Z,9.48
2018-11-27T01:50:17.489Z,8.35
2018-11-27T01:52:46.389Z,4.00
2018-11-27T01:55:17.261Z,3.05
2018-11-27T01:57:46.051Z,4.33
2018-11-27T02:00:21.793Z,4.37
2018-11-27T02:02:50.873Z,4.20
2018-11-27T02:05:19.601Z,2.70
2018-11-27T02:07:48.329Z,5.50
2018-11-27T02:10:17.032Z,4.55
2018-11-27T02:12:46.625Z,3.87
2018-11-27T02:15:22.277Z,4.08
2018-11-27T02:17:50.979Z,3.37
2018-11-27T02:20:19.697Z,4.58
2018-11-27T02:22:49.722Z,8.13
2018-11-27T02:25:23.447Z,5.35
2018-11-27T02:27:52.250Z,5.35
2018-11-27T02:30:22.111Z,2.83
2018-11-27T02:32:50.805Z,4.95
2018-11-27T02:35:21.306Z,3.95
2018-11-27T02:37:51.189Z,4.45
2018-11-27T02:40:19.842Z,4.10
2018-11-27T02:42:48.541Z,3.27
2018-11-27T02:45:20.088Z,3.52
2018-11-27T02:47:49.803Z,4.80
2018-11-27T02:50:19.448Z,3.20
2018-11-27T02:52:49.625Z,2.17
2018-11-27T02:55:22.597Z,4.28
2018-11-27T02:57:51.613Z,2.45
2018-11-27T03:00:23.463Z,4.97
2018-11-27T03:02:52.173Z,3.90
2018-11-27T03:05:27.482Z,3.45
2018-11-27T03:07:56.198Z,14.60
2018-11-27T03:10:24.897Z,3.30
2018-11-27T03:12:54.101Z,7.08
2018-11-27T03:15:22.818Z,2.98
2018-11-27T03:17:51.655Z,3.77
2018-11-27T03:20:20.361Z,4.25
2018-11-27T03:22:49.043Z,4.05
2018-11-27T03:25:19.555Z,3.47
2018-11-27T03:27:49.366Z,3.33
2018-11-27T03:30:20.943Z,6.10
2018-11-27T03:32:50.054Z,4.22
2018-11-27T03:35:19.738Z,3.25
2018-11-27T03:37:48.817Z,2.95
2018-11-27T03:40:21.611Z,4.55
2018-11-27T03:42:50.323Z,3.75
2018-11-27T03:45:19.732Z,3.10
2018-11-27T03:47:48.463Z,2.83
2018-11-27T03:50:20.160Z,3.80
2018-11-27T03:52:48.847Z,3.15
2018-11-27T03:55:17.594Z,4.45
2018-11-27T03:57:46.989Z,4.35
2018-11-27T04:00:17.469Z,3.22
2018-11-27T04:02:47.548Z,5.45
2018-11-27T04:05:16.254Z,3.62
2018-11-27T04:07:44.995Z,4.42
2018-11-27T04:10:15.759Z,2.33
2018-11-27T04:12:44.463Z,7.22
2018-11-27T04:15:13.462Z,1.90
2018-11-27T04:17:42.221Z,3.60
2018-11-27T04:20:12.482Z,2.33
2018-11-27T04:22:41.740Z,3.10
2018-11-27T04:25:16.299Z,3.37
2018-11-27T04:27:45.782Z,2.77
2018-11-27T04:30:15.628Z,5.83
2018-11-27T04:32:44.466Z,1.90
2018-11-27T04:35:14.847Z,2.90
2018-11-27T04:37:44.727Z,5.62
2018-11-27T04:40:15.988Z,3.17
2018-11-27T04:42:44.690Z,4.30
2018-11-27T04:45:23.003Z,4.58
2018-11-27T04:47:51.697Z,4.40
2018-11-27T04:50:21.237Z,3.15
2018-11-27T04:52:49.986Z,3.33
2018-11-27T04:55:20.481Z,2.80
2018-11-27T04:57:50.262Z,3.33
2018-11-27T05:00:21.999Z,2.27
2018-11-27T05:02:50.742Z,4.95
2018-11-27T05:05:19.440Z,6.72
2018-11-27T05:07:49.161Z,3.37
2018-11-27T05:10:23.424Z,3.15
2018-11-27T05:12:52.140Z,4.65
2018-11-27T05:15:23.199Z,3.85
2018-11-27T05:17:53.066Z,3.70
2018-11-27T05:20:21.768Z,5.80
2018-11-27T05:22:50.551Z,5.55
2018-11-27T05:25:19.828Z,5.10
2018-11-27T05:27:50.664Z,3.70
2018-11-27T05:30:20.375Z,4.17
2018-11-27T05:32:49.323Z,3.30
2018-11-27T05:35:22.747Z,3.77
2018-11-27T05:37:51.596Z,3.00
2018-11-27T05:40:22.087Z,3.00
2018-11-27T05:42:54.877Z,3.52
2018-11-27T05:45:24.247Z,5.72
2018-11-27T05:47:52.964Z,4.40
2018-11-27T05:50:21.666Z,5.35
2018-11-27T05:52:50.418Z,2.30
2018-11-27T05:55:19.133Z,3.05
2018-11-27T05:57:50.363Z,2.37
2018-11-27T06:00:20.346Z,3.30
2018-11-27T06:02:50.681Z,4.90
2018-11-27T06:05:20.462Z,4.40
2018-11-27T06:07:49.149Z,2.95
2018-11-27T06:10:18.795Z,7.15
2018-11-27T06:12:47.592Z,3.62
2018-11-27T06:15:17.315Z,5.20
2018-11-27T06:17:47.059Z,3.85
2018-11-27T06:20:16.926Z,5.45
2018-11-27T06:22:45.726Z,7.50
2018-11-27T06:25:18.546Z,16.73
2018-11-27T06:27:49.116Z,3.22
2018-11-27T06:30:19.010Z,5.65
2018-11-27T06:32:47.813Z,4.42
2018-11-27T06:35:18.141Z,3.27
2018-11-27T06:37:47.999Z,3.45
2018-11-27T06:40:19.997Z,7.92
2018-11-27T06:42:48.681Z,5.15
2018-11-27T06:45:18.318Z,4.30
2018-11-27T06:47:48.114Z,2.70
2018-11-27T06:50:18.024Z,4.95
2018-11-27T06:52:46.882Z,3.83
2018-11-27T06:55:16.845Z,5.05
2018-11-27T06:57:45.581Z,3.35
2018-11-27T07:00:17.183Z,2.80
2018-11-27T07:02:45.965Z,2.65
2018-11-27T07:05:14.961Z,2.77
2018-11-27T07:07:43.646Z,4.83
2018-11-27T07:10:14.177Z,5.97
2018-11-27T07:12:42.871Z,7.65
2018-11-27T07:15:14.434Z,5.35
2018-11-27T07:17:43.195Z,4.40
2018-11-27T07:20:12.522Z,3.40
2018-11-27T07:22:41.356Z,7.37
2018-11-27T07:25:13.050Z,6.97
2018-11-27T07:27:43.158Z,3.42
2018-11-27T07:30:17.746Z,3.30
2018-11-27T07:32:46.415Z,7.15
2018-11-27T07:35:15.757Z,4.17
2018-11-27T07:37:44.484Z,7.10
2018-11-27T07:40:15.207Z,3.77
2018-11-27T07:42:43.974Z,3.33
2018-11-27T07:45:13.693Z,3.35
2018-11-27T07:47:42.466Z,3.98
2018-11-27T07:50:11.871Z,7.28
2018-11-27T07:52:40.635Z,4.97
2018-11-27T07:55:14.961Z,3.67
2018-11-27T07:57:43.763Z,10.18
2018-11-27T08:00:17.747Z,8.45
2018-11-27T08:02:47.376Z,2.30
2018-11-27T08:05:18.419Z,2.65
2018-11-27T08:07:54.281Z,3.25
2018-11-27T08:10:25.133Z,4.72
2018-11-27T08:12:55.281Z,4.65
2018-11-27T08:15:24.833Z,3.77
2018-11-27T08:17:54.208Z,5.83
2018-11-27T08:20:29.163Z,3.30
2018-11-27T08:22:57.891Z,2.90
2018-11-27T08:25:26.656Z,3.98
2018-11-27T08:27:55.393Z,2.58
2018-11-27T08:30:25.392Z,6.42
2018-11-27T08:32:54.853Z,6.75
2018-11-27T08:35:24.611Z,6.33
2018-11-27T08:37:54.294Z,3.27
2018-11-27T08:40:23.974Z,3.45
2018-11-27T08:42:53.449Z,3.10
2018-11-27T08:45:23.075Z,3.45
2018-11-27T08:47:52.797Z,3.77
2018-11-27T08:50:22.597Z,2.25
2018-11-27T08:52:53.437Z,3.77
2018-11-27T08:55:23.597Z,4.37
2018-11-27T08:57:52.477Z,3.72
2018-11-27T09:00:24.313Z,7.72
2018-11-27T09:02:53.038Z,5.85
2018-11-27T09:05:21.736Z,6.53
2018-11-27T09:07:50.451Z,4.40
2018-11-27T09:10:20.445Z,4.30
2018-11-27T09:12:49.239Z,3.92
2018-11-27T09:15:19.578Z,4.22
2018-11-27T09:18:52.785Z,5.00
2018-11-27T09:21:21.577Z,2.85
2018-11-27T09:23:51.508Z,3.08
2018-11-27T09:26:20.163Z,3.42
2018-11-27T09:28:49.643Z,3.65
2018-11-27T09:31:20.225Z,3.05
2018-11-27T09:33:48.995Z,13.65
2018-11-27T09:36:17.668Z,3.70
2018-11-27T09:38:46.355Z,3.98
2018-11-27T09:41:15.048Z,7.75
2018-11-27T09:43:43.719Z,4.10
2018-11-27T09:46:12.431Z,6.08
2018-11-27T09:48:41.131Z,3.12
2018-11-27T09:51:09.854Z,4.95
2018-11-27T09:53:38.554Z,3.30
2018-11-27T09:56:07.239Z,6.22
2018-11-27T09:58:36.871Z,8.08
2018-11-27T10:01:06.705Z,3.27
2018-11-27T10:03:35.407Z,3.50
2018-11-27T10:06:10.743Z,3.98
2018-11-27T10:08:39.539Z,4.25
2018-11-27T10:11:08.855Z,2.85
2018-11-27T10:13:37.557Z,2.45
2018-11-27T10:16:06.307Z,3.20
2018-11-27T10:18:35.059Z,5.90
2018-11-27T10:21:04.637Z,4.10
2018-11-27T10:23:33.328Z,3.80
2018-11-27T10:26:02.136Z,6.62
2018-11-27T10:28:32.190Z,4.20
2018-11-27T10:30:59.532Z,4.50
2018-11-27T10:33:28.238Z,5.87
2018-11-27T10:35:57.753Z,4.17
2018-11-27T10:38:26.564Z,3.47
2018-11-27T10:40:55.127Z,4.55
2018-11-27T10:43:23.852Z,5.55
2018-11-27T10:45:52.524Z,3.75
2018-11-27T10:48:21.274Z,4.10
2018-11-27T10:50:54.295Z,2.72
2018-11-27T10:53:22.979Z,8.53
2018-11-27T10:55:51.687Z,4.10
2018-11-27T10:58:20.785Z,3.70
2018-11-27T11:00:56.111Z,4.08
2018-11-27T11:03:29.936Z,4.17
2018-11-27T11:05:58.658Z,6.58
2018-11-27T11:08:27.400Z,7.75
2018-11-27T11:10:56.781Z,3.90
2018-11-27T11:13:25.484Z,6.47
2018-11-27T11:15:54.799Z,3.30
2018-11-27T11:18:23.528Z,4.47
2018-11-27T11:20:52.361Z,4.85
2018-11-27T11:23:22.909Z,5.45
2018-11-27T11:25:51.616Z,7.80
2018-11-27T11:28:22.213Z,7.45
2018-11-27T11:30:50.916Z,11.18
2018-11-27T11:33:19.625Z,4.75
2018-11-27T11:35:49.492Z,6.87
2018-11-27T11:38:18.190Z,3.77
2018-11-27T11:40:46.917Z,3.55
2018-11-27T11:43:15.610Z,3.40
2018-11-27T11:45:44.329Z,3.55
2018-11-27T11:48:13.052Z,3.90
2018-11-27T11:50:41.766Z,17.52
2018-11-27T11:53:14.897Z,6.50
2018-11-27T11:55:43.785Z,5.55
2018-11-27T11:58:12.569Z,5.00
2018-11-27T12:00:45.106Z,7.50
2018-11-27T12:03:13.827Z,4.58
2018-11-27T12:05:42.593Z,9.88
2018-11-27T12:08:11.257Z,3.27
2018-11-27T12:10:39.961Z,6.95
2018-11-27T12:13:09.707Z,4.60
2018-11-27T12:15:38.459Z,3.47
2018-11-27T12:18:08.279Z,6.65
2018-11-27T12:20:37.157Z,5.03
2018-11-27T12:23:07.221Z,4.10
2018-11-27T12:25:36.304Z,4.78
2018-11-27T12:28:05.609Z,4.45
2018-11-27T12:30:34.349Z,3.37
2018-11-27T12:33:03.051Z,3.80
2018-11-27T12:35:31.753Z,4.25
2018-11-27T12:38:00.480Z,4.65
2018-11-27T12:40:29.479Z,4.50
2018-11-27T12:42:58.510Z,7.33
2018-11-27T12:45:29.912Z,4.20
2018-11-27T12:47:59.754Z,5.83
2018-11-27T12:50:30.823Z,4.80
2018-11-27T12:53:00.746Z,10.23
2018-11-27T12:55:28.320Z,4.33
2018-11-27T12:57:57.088Z,4.90
2018-11-27T13:00:26.475Z,7.70
2018-11-27T13:02:55.178Z,8.00
2018-11-27T13:05:25.103Z,3.70
2018-11-27T13:07:56.454Z,3.70
2018-11-27T13:10:25.182Z,6.53
2018-11-27T13:12:55.093Z,5.53
2018-11-27T13:15:23.774Z,4.15
2018-11-27T13:17:52.979Z,6.92
2018-11-27T13:20:21.730Z,4.72
2018-11-27T13:22:51.068Z,4.50
2018-11-27T13:25:24.040Z,4.80
2018-11-27T13:27:59.348Z,4.95
2018-11-27T13:30:31.200Z,4.83
2018-11-27T13:33:02.137Z,4.08
2018-11-27T13:35:32.442Z,4.12
2018-11-27T13:38:01.787Z,3.47
2018-11-27T13:40:30.495Z,3.58
2018-11-27T13:42:59.201Z,4.25
2018-11-27T13:45:27.951Z,5.72
2018-11-27T13:47:56.653Z,5.37
2018-11-27T13:50:25.659Z,6.33
2018-11-27T13:52:54.068Z,3.33
2018-11-27T13:55:22.855Z,5.55
2018-11-27T13:57:51.563Z,4.92
2018-11-27T14:00:20.590Z,7.35
2018-11-27T14:02:50.856Z,10.80
2018-11-27T14:05:20.686Z,6.62
2018-11-27T14:07:49.410Z,10.35
2018-11-27T14:10:18.244Z,6.37
2018-11-27T14:12:46.915Z,4.85
2018-11-27T14:15:17.492Z,3.70
2018-11-27T14:17:46.227Z,4.92
2018-11-27T14:20:14.964Z,4.67
2018-11-27T14:22:45.346Z,3.37
2018-11-27T14:25:14.387Z,5.33
2018-11-27T14:27:43.373Z,4.45
2018-11-27T14:30:16.212Z,4.97
2018-11-27T14:32:45.088Z,7.85
2018-11-27T14:35:15.636Z,8.25
2018-11-27T14:37:45.662Z,4.25
2018-11-27T14:40:16.337Z,5.92
2018-11-27T14:42:45.140Z,9.43
2018-11-27T14:45:16.892Z,7.50
2018-11-27T14:47:46.744Z,11.68
2018-11-27T14:50:15.427Z,8.98
2018-11-27T14:52:44.225Z,7.72
2018-11-27T14:55:14.856Z,13.10
2018-11-27T14:57:43.569Z,9.23
2018-11-27T15:00:14.479Z,8.98
2018-11-27T15:02:43.252Z,7.37
2018-11-27T15:05:29.811Z,8.85
2018-11-27T15:07:58.895Z,5.55
2018-11-27T15:10:27.620Z,9.85
2018-11-27T15:12:56.333Z,6.30
2018-11-27T15:15:25.046Z,6.47
2018-11-27T15:17:54.190Z,8.00
2018-11-27T15:20:23.259Z,9.60
2018-11-27T15:22:52.012Z,10.63
2018-11-27T15:25:20.731Z,13.15
2018-11-27T15:27:49.419Z,7.75
2018-11-27T15:30:22.996Z,10.93
2018-11-27T15:32:55.854Z,9.68
2018-11-27T15:35:25.188Z,11.55
2018-11-27T15:37:53.960Z,12.65
2018-11-27T15:40:24.764Z,9.65
2018-11-27T15:42:53.552Z,10.98
2018-11-27T15:45:29.777Z,11.05
2018-11-27T15:47:58.565Z,12.70
2018-11-27T15:50:27.261Z,9.25
2018-11-27T15:52:55.972Z,17.02
2018-11-27T15:55:26.919Z,12.47
2018-11-27T15:57:57.342Z,11.05
2018-11-27T16:00:26.170Z,12.60
2018-11-27T16:02:54.914Z,11.78
2018-11-27T16:05:23.712Z,7.60
2018-11-27T16:07:52.412Z,17.12
2018-11-27T16:10:21.731Z,9.70
2018-11-27T16:12:50.542Z,14.85
2018-11-27T16:15:20.045Z,7.92
2018-11-27T16:17:49.743Z,11.45
2018-11-27T16:20:19.877Z,13.65
2018-11-27T16:22:49.405Z,10.78
2018-11-27T16:25:19.060Z,9.80
2018-11-27T16:27:47.835Z,8.25
2018-11-27T16:30:20.578Z,7.53
2018-11-27T16:32:49.292Z,12.13
2018-11-27T16:35:18.095Z,8.05
2018-11-27T16:37:48.986Z,19.02
2018-11-27T16:40:19.785Z,15.90
2018-11-27T16:42:48.492Z,9.10
2018-11-27T16:45:19.108Z,13.05
2018-11-27T16:47:48.029Z,12.15
2018-11-27T16:50:17.537Z,13.68
2018-11-27T16:52:46.371Z,11.40
2018-11-27T16:55:16.943Z,9.73
2018-11-27T16:57:45.634Z,7.50
2018-11-27T17:00:20.226Z,8.93
2018-11-27T17:02:50.440Z,10.43
2018-11-27T17:05:18.607Z,11.22
2018-11-27T17:07:48.363Z,8.18
2018-11-27T17:10:17.918Z,9.80
2018-11-27T17:12:47.332Z,13.72
2018-11-27T17:15:20.075Z,9.98
2018-11-27T17:17:48.786Z,9.28
2018-11-27T17:20:21.651Z,10.58
2018-11-27T17:22:51.107Z,7.80
2018-11-27T17:25:19.836Z,10.88
2018-11-27T17:27:49.027Z,7.45
2018-11-27T17:30:30.135Z,10.32
2018-11-27T17:32:59.258Z,20.77
2018-11-27T17:35:27.736Z,25.80
2018-11-27T17:37:56.484Z,45.38
2018-11-27T17:40:25.198Z,28.52
2018-11-27T17:42:53.909Z,32.33
2018-11-27T17:45:22.628Z,35.13
2018-11-27T17:47:52.142Z,29.72
2018-11-27T17:50:20.833Z,41.85
2018-11-27T17:52:49.817Z,35.35
2018-11-27T17:55:18.540Z,28.57
2018-11-27T17:57:47.247Z,23.50
2018-11-27T18:00:18.813Z,26.20
2018-11-27T18:02:50.276Z,34.05
2018-11-27T18:05:19.104Z,28.70
2018-11-27T18:07:47.819Z,27.73
2018-11-27T18:10:17.005Z,22.30
2018-11-27T18:12:45.756Z,24.18
2018-11-27T18:15:16.788Z,31.25
2018-11-27T18:17:46.123Z,21.60
2018-11-27T18:20:14.922Z,23.73
2018-11-27T18:22:43.607Z,21.00
2018-11-27T18:25:14.096Z,20.40
2018-11-27T18:27:43.909Z,16.23
2018-11-27T18:30:15.595Z,18.27
2018-11-27T18:32:45.766Z,21.17
2018-11-27T18:35:19.598Z,20.68
2018-11-27T18:37:49.235Z,21.07
2018-11-27T18:40:18.118Z,19.70
2018-11-27T18:42:47.081Z,18.15
2018-11-27T18:45:17.979Z,27.07
2018-11-27T18:47:46.807Z,21.85
2018-11-27T18:50:15.540Z,29.05
2018-11-27T18:52:44.337Z,15.83
2018-11-27T18:55:14.923Z,21.90
2018-11-27T18:57:44.355Z,18.60
2018-11-27T19:00:17.405Z,29.72
2018-11-27T19:02:46.378Z,22.87
2018-11-27T19:05:15.313Z,23.67
2018-11-27T19:07:44.061Z,25.37
2018-11-27T19:10:15.925Z,19.27
2018-11-27T19:12:44.824Z,19.70
2018-11-27T19:15:16.057Z,19.00
2018-11-27T19:17:46.065Z,16.48
2018-11-27T19:20:15.315Z,18.12
2018-11-27T19:22:45.312Z,18.57
2018-11-27T19:25:16.226Z,18.35
2018-11-27T19:27:44.935Z,21.10
2018-11-27T19:30:17.699Z,23.18
2018-11-27T19:32:46.694Z,65.30
2018-11-27T19:35:16.489Z,92.15
2018-11-27T19:37:45.999Z,155.03
2018-11-27T19:40:15.945Z,165.73
2018-11-27T19:42:44.758Z,209.40
2018-11-27T19:45:18.646Z,228.62
2018-11-27T19:47:47.421Z,263.52
2018-11-27T19:50:16.805Z,312.45
2018-11-27T19:52:46.419Z,323.55
2018-11-27T19:55:17.136Z,389.05
2018-11-27T19:57:46.555Z,400.15
2018-11-27T20:00:16.605Z,396.05
2018-11-27T20:02:45.481Z,374.90
2018-11-27T20:05:15.720Z,383.52
2018-11-27T20:07:44.918Z,367.48
2018-11-27T20:10:14.582Z,384.83
2018-11-27T20:12:43.654Z,337.40
2018-11-27T20:15:20.175Z,353.40
2018-11-27T20:17:49.669Z,340.65
2018-11-27T20:20:20.783Z,328.50
2018-11-27T20:22:49.600Z,313.77
2018-11-27T20:25:20.334Z,307.90
2018-11-27T20:27:49.039Z,318.73
2018-11-27T20:30:20.474Z,295.93
2018-11-27T20:32:54.463Z,317.43
2018-11-27T20:35:23.335Z,302.62
2018-11-27T20:37:53.354Z,292.43
2018-11-27T20:40:22.091Z,255.27
2018-11-27T20:42:50.900Z,263.40
2018-11-27T20:45:32.822Z,287.65
2018-11-27T20:48:17.201Z,283.40
2018-11-27T20:50:47.501Z,250.93
2018-11-27T20:53:16.369Z,251.92
2018-11-27T20:55:45.099Z,231.60
2018-11-27T20:58:14.195Z,209.45
2018-11-27T21:00:44.298Z,231.72
2018-11-27T21:03:13.130Z,227.18
2018-11-27T21:05:41.853Z,207.55
2018-11-27T21:08:10.587Z,213.60
2018-11-27T21:10:39.640Z,219.72
2018-11-27T21:13:09.752Z,243.60
2018-11-27T21:15:39.604Z,206.50
2018-11-27T21:18:09.231Z,213.18
2018-11-27T21:20:38.350Z,193.00
2018-11-27T21:23:07.168Z,196.63
2018-11-27T21:25:35.933Z,192.68
2018-11-27T21:28:08.754Z,175.03
2018-11-27T21:30:37.634Z,177.68
2018-11-27T21:33:06.414Z,188.15
2018-11-27T21:35:35.176Z,171.28
2018-11-27T21:38:03.977Z,182.88
2018-11-27T21:40:32.735Z,159.10
2018-11-27T21:43:01.519Z,170.75
2018-11-27T21:45:30.222Z,171.05
2018-11-27T21:47:59.167Z,168.80
2018-11-27T21:50:33.447Z,138.77
2018-11-27T21:53:02.185Z,128.93
2018-11-27T21:55:30.965Z,195.70
2018-11-27T21:57:59.689Z,149.68
2018-11-27T22:00:28.725Z,155.03
2018-11-27T22:02:57.458Z,138.72
2018-11-27T22:05:26.165Z,121.02
2018-11-27T22:07:55.003Z,129.80
2018-11-27T22:10:24.485Z,119.80
2018-11-27T22:12:56.059Z,130.07
2018-11-27T22:15:32.781Z,112.12
2018-11-27T22:18:01.645Z,124.05
2018-11-27T22:20:30.594Z,108.03
2018-11-27T22:22:59.342Z,109.65
2018-11-27T22:25:28.156Z,91.92
2018-11-27T22:27:56.987Z,113.90
2018-11-27T22:30:25.748Z,127.72
2018-11-27T22:32:55.089Z,98.33
2018-11-27T22:35:23.823Z,90.25
2018-11-27T22:37:52.766Z,111.03
2018-11-27T22:40:23.078Z,103.55
2018-11-27T22:42:52.657Z,115.77
2018-11-27T22:45:27.848Z,121.10
2018-11-27T22:47:56.725Z,88.50
2018-11-27T22:50:25.395Z,107.03
2018-11-27T22:52:54.116Z,81.08
2018-11-27T22:55:22.825Z,72.20
2018-11-27T22:57:51.508Z,97.75
2018-11-27T23:00:32.965Z,104.65
2018-11-27T23:03:02.040Z,85.62
2018-11-27T23:05:30.786Z,90.60
2018-11-27T23:07:59.511Z,76.72
2018-11-27T23:10:30.708Z,79.80
2018-11-27T23:12:59.459Z,81.10
2018-11-27T23:15:28.247Z,76.02
2018-11-27T23:17:56.929Z,76.17
2018-11-27T23:20:25.644Z,74.53
2018-11-27T23:22:54.460Z,94.85
2018-11-27T23:25:23.156Z,65.25
2018-11-27T23:27:51.891Z,76.75
2018-11-27T23:30:22.289Z,71.82
2018-11-27T23:32:50.985Z,72.97
2018-11-27T23:35:19.733Z,60.43
2018-11-27T23:37:48.424Z,73.87
2018-11-27T23:40:20.995Z,65.10
2018-11-27T23:42:49.858Z,75.90
2018-11-27T23:45:20.090Z,60.75
2018-11-27T23:47:48.819Z,93.55
2018-11-27T23:50:20.011Z,58.73
2018-11-27T23:52:48.907Z,57.48
2018-11-27T23:55:18.439Z,67.10
2018-11-27T23:57:47.603Z,75.80
